Time;durP1;ratioP1;P1;durP2;ratioP2;P2;SDS_P1;SDS_P2;PMS_P1;PMS_P2;Temp;Humidity;BMP_temperature;BMP_pressure;BME280_temperature;BME280_humidity;BME280_pressure;Samples;Min_cycle;Max_cycle;Signal;HPM_P1;HPM_P2
2022/12/29 00:01:57;;;;;;;31.35;15.73;;;;;;;4.65;94.67;98051.78;5004647;28;20054;-57
2022/12/29 00:04:24;;;;;;;36.03;18.45;;;;;;;3.74;94.39;97887.59;5002775;28;20053;-61
2022/12/29 00:06:52;;;;;;;30.88;16.92;;;;;;;4.82;93.42;98062.09;5004291;28;20115;-63
2022/12/29 00:09:19;;;;;;;38.88;20.40;;;;;;;4.82;93.28;98061.31;5003565;28;20061;-57
2022/12/29 00:11:45;;;;;;;35.63;19.60;;;;;;;4.71;93.32;98037.94;5003862;28;20107;-62
2022/12/29 00:16:58;;;;;;;47.00;23.45;;;;;;;4.63;92.34;97999.13;5004059;28;20058;-60
2022/12/29 00:36:06;;;;;;;47.55;23.50;;;;;;;4.88;92.13;98010.66;5027551;28;20127;-62
2022/12/29 00:44:10;;;;;;;51.13;27.23;;;;;;;5.39;90.31;98082.47;5007802;28;20077;-59
2022/12/29 00:46:38;;;;;;;44.15;24.75;;;;;;;5.35;90.48;98087.78;5007421;28;20067;-57
2022/12/29 00:51:52;;;;;;;51.42;23.67;;;;;;;5.23;91.48;98086.72;5007334;28;20077;-63
2022/12/29 00:54:19;;;;;;;47.55;24.25;;;;;;;4.68;92.74;98005.63;5007493;28;20066;-63
2022/12/29 00:56:47;;;;;;;32.88;18.83;;;;;;;5.16;92.10;98072.59;5007369;28;20107;-63
2022/12/29 00:59:14;;;;;;;33.35;18.40;;;;;;;5.31;91.87;98081.28;5009970;28;20448;-62
2022/12/29 01:01:41;;;;;;;53.38;30.08;;;;;;;5.29;92.74;98077.22;5026555;28;20491;-58
2022/12/29 01:04:09;;;;;;;69.80;34.35;;;;;;;5.25;91.89;98057.00;5026606;28;20132;-63
2022/12/29 01:06:37;;;;;;;72.25;33.58;;;;;;;4.51;92.67;97945.91;5027092;28;20118;-56
2022/12/29 01:11:51;;;;;;;42.95;24.50;;;;;;;5.23;92.86;98067.50;5007333;28;20057;-62
2022/12/29 01:14:19;;;;;;;47.97;24.85;;;;;;;5.10;92.57;98062.84;5010632;28;20073;-57
2022/12/29 01:16:46;;;;;;;42.42;23.45;;;;;;;5.00;93.05;98063.06;5026685;28;20080;-56
2022/12/29 01:19:13;;;;;;;39.42;20.52;;;;;;;4.38;92.94;97964.03;5026992;28;20072;-56
2022/12/29 01:21:40;;;;;;;39.90;20.23;;;;;;;5.01;93.05;98060.00;5019298;28;20057;-57
2022/12/29 01:24:07;;;;;;;36.58;18.58;;;;;;;5.05;92.48;98061.03;5005848;28;20053;-59
2022/12/29 01:26:34;;;;;;;30.15;16.17;;;;;;;4.64;91.94;98009.00;5005717;28;20053;-63
2022/12/29 01:29:01;;;;;;;33.70;15.30;;;;;;;5.00;92.63;98057.56;5006496;28;20049;-57
2022/12/29 01:31:27;;;;;;;33.25;16.63;;;;;;;4.96;93.17;98056.59;5010162;28;20533;-62
2022/12/29 01:33:54;;;;;;;46.10;21.25;;;;;;;4.47;93.33;97958.63;5026411;28;20049;-57
2022/12/29 01:36:21;;;;;;;43.47;23.02;;;;;;;5.09;93.16;98033.78;5026065;28;20053;-63
2022/12/29 01:38:48;;;;;;;44.58;21.33;;;;;;;5.02;92.33;98038.88;5014937;28;20487;-62
2022/12/29 01:41:15;;;;;;;41.38;19.27;;;;;;;4.37;92.67;97945.16;5006577;28;20050;-57
2022/12/29 01:43:56;;;;;;;36.80;19.08;;;;;;;4.81;93.48;98045.94;5026170;28;20046;-57
2022/12/29 01:46:25;;;;;;;30.15;16.63;;;;;;;4.01;99.24;98041.06;5025678;28;20335;-56
2022/12/29 01:48:57;;;;;;;33.00;17.55;;;;;;;3.85;100.00;98047.94;5025888;28;20085;-63
2022/12/29 01:51:25;;;;;;;31.13;16.67;;;;;;;3.58;100.00;97982.13;5024591;28;20099;-62
2022/12/29 01:53:55;;;;;;;34.25;18.67;;;;;;;3.41;100.00;97948.22;5026107;28;20318;-62
2022/12/29 01:56:23;;;;;;;37.67;19.10;;;;;;;3.58;100.00;97971.19;5025716;28;20489;-56
2022/12/29 01:58:59;;;;;;;41.15;20.52;;;;;;;4.03;100.00;98033.31;5025777;28;20050;-62
2022/12/29 02:01:26;;;;;;;38.80;18.95;;;;;;;3.87;99.76;98015.53;5025862;28;20048;-57
2022/12/29 02:03:53;;;;;;;37.15;17.95;;;;;;;3.48;99.62;97951.41;5024175;28;20128;-59
2022/12/29 02:06:31;;;;;;;44.72;20.45;;;;;;;4.03;100.00;98027.84;5024579;28;20076;-62
2022/12/29 02:08:59;;;;;;;40.80;18.88;;;;;;;3.57;100.00;97964.09;5025819;28;20508;-56
2022/12/29 02:11:28;;;;;;;39.53;18.48;;;;;;;3.79;100.00;98021.75;5022926;28;20077;-56
2022/12/29 02:13:56;;;;;;;34.65;17.25;;;;;;;3.80;100.00;98012.41;5005652;28;20619;-57
2022/12/29 02:16:32;;;;;;;34.28;16.20;;;;;;;3.46;100.00;98028.38;5005287;28;20527;-62
2022/12/29 02:19:30;;;;;;;29.05;15.48;;;;;;;3.54;100.00;98013.19;5010068;28;20341;-59
2022/12/29 02:22:15;;;;;;;28.60;13.48;;;;;;;3.64;100.00;98005.56;5023933;28;20057;-62
2022/12/29 02:25:06;;;;;;;35.05;16.65;;;;;;;3.62;100.00;98016.00;5018003;28;20056;-62
2022/12/29 02:28:15;;;;;;;29.45;15.82;;;;;;;3.25;100.00;97950.44;5008285;28;20045;-62
2022/12/29 02:31:07;;;;;;;31.65;16.98;;;;;;;3.61;100.00;98008.94;5023854;28;20056;-62
2022/12/29 02:34:15;;;;;;;34.38;17.80;;;;;;;3.82;100.00;97999.22;5025309;28;20046;-57
2022/12/29 02:36:42;;;;;;;34.97;17.88;;;;;;;3.71;100.00;98003.28;5005145;28;20064;-57
2022/12/29 02:39:15;;;;;;;38.45;18.77;;;;;;;3.71;100.00;98003.28;5005750;28;20108;-56
2022/12/29 02:42:17;;;;;;;36.13;18.90;;;;;;;3.76;100.00;98005.88;5004763;28;20085;-62
2022/12/29 02:45:04;;;;;;;41.38;21.17;;;;;;;3.79;100.00;97994.34;5004865;28;20124;-62
2022/12/29 02:47:46;;;;;;;43.67;22.83;;;;;;;3.80;100.00;97989.66;5020293;28;20088;-62
2022/12/29 02:50:38;;;;;;;53.53;24.95;;;;;;;3.81;100.00;97983.88;5005094;28;20126;-56
2022/12/29 02:53:09;;;;;;;52.63;25.52;;;;;;;3.74;100.00;97991.69;5020531;28;20053;-57
2022/12/29 02:55:35;;;;;;;57.22;29.17;;;;;;;3.76;100.00;97981.22;5004954;28;20045;-57
2022/12/29 02:58:22;;;;;;;64.47;32.10;;;;;;;3.77;100.00;97985.63;5005163;28;20049;-62
2022/12/29 03:01:21;;;;;;;66.68;29.98;;;;;;;3.62;100.00;97972.19;5004978;28;20083;-62
2022/12/29 03:03:54;;;;;;;53.08;24.60;;;;;;;3.71;100.00;97981.34;5017660;28;20581;-63
2022/12/29 03:06:40;;;;;;;67.68;28.23;;;;;;;3.65;99.67;97977.06;5023752;28;20053;-63
2022/12/29 03:09:34;;;;;;;51.25;23.42;;;;;;;3.58;99.08;97976.66;5023391;28;20132;-56
2022/12/29 03:12:09;;;;;;;;;;;;;;;3.47;99.21;97980.69;5024585;28;20163;-62
2022/12/29 03:18:15;;;;;;;41.78;19.83;;;;;;;3.48;99.27;97982.31;5024684;28;20088;-63
2022/12/29 03:20:58;;;;;;;55.85;22.48;;;;;;;3.36;99.17;98003.91;5022456;28;20053;-57
2022/12/29 03:23:26;;;;;;;51.67;23.17;;;;;;;3.19;99.13;97962.59;5023053;28;20084;-57
2022/12/29 03:25:58;;;;;;;51.05;23.50;;;;;;;3.31;97.88;97990.31;5011268;28;20143;-56
2022/12/29 03:28:32;;;;;;;43.03;19.83;;;;;;;2.80;97.27;97940.25;5004661;28;20085;-57
2022/12/29 03:31:00;;;;;;;46.90;20.85;;;;;;;3.08;97.67;97994.78;5004317;28;20054;-62
2022/12/29 03:33:29;;;;;;;45.97;21.40;;;;;;;2.97;98.36;97987.84;5004482;28;20049;-62
2022/12/29 03:36:06;;;;;;;37.08;18.52;;;;;;;2.85;98.61;97989.44;5004206;28;20539;-57
2022/12/29 03:38:45;;;;;;;33.38;16.73;;;;;;;2.72;99.24;97984.69;5020469;28;20100;-62
2022/12/29 03:41:17;;;;;;;32.85;15.55;;;;;;;2.72;99.31;97992.91;5024263;28;20108;-57
2022/12/29 03:43:44;;;;;;;39.38;18.98;;;;;;;2.46;100.00;97959.69;5022854;28;20467;-56
2022/12/29 03:46:10;;;;;;;61.55;33.28;;;;;;;2.74;100.00;97987.97;5023674;28;20558;-56
2022/12/29 03:48:37;;;;;;;75.63;38.80;;;;;;;2.80;100.00;97981.28;5023888;28;20049;-58
2022/12/29 03:51:04;;;;;;;41.80;22.42;;;;;;;2.14;100.00;97858.47;5023730;28;20064;-56
2022/12/29 03:53:30;;;;;;;34.80;17.05;;;;;;;2.82;100.00;97990.03;5022627;28;20057;-56
2022/12/29 03:55:57;;;;;;;33.80;16.65;;;;;;;2.61;100.00;97947.69;5023784;28;20049;-57
2022/12/29 03:58:24;;;;;;;34.58;19.52;;;;;;;2.58;100.00;97951.00;5024048;28;20053;-62
2022/12/29 04:00:50;;;;;;;33.42;18.70;;;;;;;2.80;100.00;97986.75;5022725;28;20061;-59
2022/12/29 04:03:17;;;;;;;39.72;18.33;;;;;;;2.10;100.00;97873.03;5004153;28;20050;-57
2022/12/29 04:05:44;;;;;;;44.80;19.42;;;;;;;2.80;100.00;97986.75;5004027;28;20046;-62
2022/12/29 04:08:10;;;;;;;39.33;18.98;;;;;;;2.63;100.00;97959.13;5003861;28;20050;-56
2022/12/29 04:10:37;;;;;;;34.53;17.42;;;;;;;2.93;100.00;97991.50;5003673;28;20057;-57
2022/12/29 04:13:03;;;;;;;40.42;17.35;;;;;;;2.86;100.00;97985.59;5003937;28;20038;-63
2022/12/29 04:15:30;;;;;;;43.08;18.63;;;;;;;2.67;100.00;97968.41;5003719;28;20511;-63
2022/12/29 04:17:58;;;;;;;55.78;23.17;;;;;;;2.84;100.00;97994.09;5002538;28;20056;-56
2022/12/29 04:23:09;;;;;;;34.35;16.30;;;;;;;2.62;100.00;97985.69;5003745;28;20583;-56
2022/12/29 04:25:36;;;;;;;26.50;14.15;;;;;;;2.40;100.00;97987.38;5004615;28;20092;-62
2022/12/29 04:28:03;;;;;;;123.88;44.80;;;;;;;2.49;100.00;97991.06;5003768;28;20092;-57
2022/12/29 04:30:29;;;;;;;35.50;16.23;;;;;;;2.49;98.69;97996.53;5003487;28;20050;-56
2022/12/29 04:32:56;;;;;;;41.20;18.20;;;;;;;2.37;98.48;97993.44;5004279;28;20116;-63
2022/12/29 04:35:23;;;;;;;35.15;18.23;;;;;;;2.39;98.71;97997.50;5008436;28;20105;-62
2022/12/29 04:37:49;;;;;;;32.63;15.75;;;;;;;2.30;98.38;97998.44;5023683;28;20593;-62
2022/12/29 04:40:16;;;;;;;29.17;14.48;;;;;;;2.08;99.09;97990.00;5021858;28;20056;-56
2022/12/29 04:42:43;;;;;;;28.80;15.30;;;;;;;2.12;99.92;98007.44;5023902;28;20119;-56
2022/12/29 04:45:10;;;;;;;35.90;17.02;;;;;;;2.07;100.00;98005.56;5019387;28;20434;-63
2022/12/29 04:47:36;;;;;;;32.88;15.88;;;;;;;2.02;100.00;98008.38;5002353;28;20146;-59
2022/12/29 04:50:04;;;;;;;34.13;17.20;;;;;;;2.12;100.00;98024.63;5003845;28;20049;-63
2022/12/29 04:52:30;;;;;;;29.60;16.05;;;;;;;2.14;100.00;98011.50;5004011;28;20050;-62
2022/12/29 04:54:57;;;;;;;35.42;17.15;;;;;;;2.13;100.00;98014.53;5014090;28;20065;-61
2022/12/29 04:57:24;;;;;;;46.10;22.98;;;;;;;2.07;100.00;98008.28;5021991;28;20704;-62
2022/12/29 04:59:50;;;;;;;48.58;24.52;;;;;;;2.11;100.00;98016.72;5023380;28;20057;-62
2022/12/29 05:02:17;;;;;;;40.53;21.70;;;;;;;2.06;100.00;98057.78;5006056;28;20168;-56
2022/12/29 05:04:44;;;;;;;51.47;24.65;;;;;;;2.07;100.00;98010.25;5003982;28;20148;-63
2022/12/29 05:07:12;;;;;;;59.72;31.50;;;;;;;2.10;100.00;98009.66;5007180;28;20127;-56
2022/12/29 05:09:39;;;;;;;59.05;27.88;;;;;;;2.08;100.00;98009.94;5007240;28;20140;-56
2022/12/29 05:12:06;;;;;;;60.78;29.98;;;;;;;2.14;100.00;98002.47;5006060;28;20057;-57
2022/12/29 05:14:33;;;;;;;70.28;35.70;;;;;;;2.13;100.00;98014.53;5007209;28;20053;-58
2022/12/29 05:16:59;;;;;;;87.03;45.80;;;;;;;2.17;100.00;98010.09;5007283;28;20140;-56
2022/12/29 05:19:26;;;;;;;95.03;44.03;;;;;;;1.54;100.00;97939.31;5006977;28;20579;-62
2022/12/29 05:21:54;;;;;;;92.63;42.80;;;;;;;2.20;100.00;98009.50;5014953;28;20069;-57
2022/12/29 05:24:20;;;;;;;84.35;38.33;;;;;;;2.16;100.00;98008.47;5026870;28;20049;-63
2022/12/29 05:26:47;;;;;;;106.72;45.92;;;;;;;2.11;100.00;98030.41;5011849;28;20124;-62
2022/12/29 05:29:13;;;;;;;97.45;43.22;;;;;;;2.07;100.00;98015.69;5007143;28;20058;-58
2022/12/29 05:31:40;;;;;;;71.70;31.73;;;;;;;2.10;100.00;98020.59;5021816;28;20559;-62
2022/12/29 05:34:07;;;;;;;76.38;35.88;;;;;;;2.07;100.00;98032.09;5010113;28;20058;-61
2022/12/29 05:36:33;;;;;;;75.72;35.03;;;;;;;2.11;100.00;98022.19;5007335;28;20045;-57
2022/12/29 05:39:03;;;;;;;82.32;34.75;;;;;;;2.10;100.00;98015.94;5005781;28;20057;-62
2022/12/29 05:41:30;;;;;;;58.78;28.67;;;;;;;1.79;100.00;97970.16;5006375;28;20108;-56
2022/12/29 05:43:57;;;;;;;67.22;33.35;;;;;;;2.07;100.00;98021.16;5006933;28;20546;-56
2022/12/29 05:46:23;;;;;;;72.47;33.38;;;;;;;2.03;100.00;98025.56;5008093;28;20068;-63
2022/12/29 05:48:50;;;;;;;72.05;34.58;;;;;;;2.01;100.00;98027.81;5024352;28;20049;-57
2022/12/29 05:51:17;;;;;;;90.38;43.75;;;;;;;2.03;100.00;98031.03;5025885;28;20053;-62
2022/12/29 05:53:43;;;;;;;72.45;36.38;;;;;;;2.09;100.00;98027.13;5026486;28;20053;-62
2022/12/29 05:56:10;;;;;;;55.15;29.52;;;;;;;2.03;100.00;98036.50;5020473;28;20128;-62
2022/12/29 05:58:36;;;;;;;51.55;25.25;;;;;;;2.02;100.00;98037.63;5006389;28;20060;-56
2022/12/29 06:01:03;;;;;;;52.35;25.23;;;;;;;1.52;100.00;97970.72;5006083;28;20129;-62
2022/12/29 06:03:30;;;;;;;57.25;28.17;;;;;;;2.07;100.00;98010.25;5006366;28;20046;-56
2022/12/29 06:05:57;;;;;;;239.68;74.85;;;;;;;2.16;100.00;98027.59;5020849;28;20153;-57
2022/12/29 06:08:23;;;;;;;265.65;106.65;;;;;;;2.13;100.00;98036.38;5006334;28;20112;-56
2022/12/29 06:10:50;;;;;;;75.68;34.63;;;;;;;2.04;100.00;98038.16;5006347;28;20104;-63
2022/12/29 06:13:17;;;;;;;69.68;32.80;;;;;;;2.07;100.00;98037.56;5005353;28;20107;-55
2022/12/29 06:15:44;;;;;;;67.03;31.85;;;;;;;2.04;100.00;98035.41;5005769;28;20493;-63
2022/12/29 06:18:10;;;;;;;101.38;48.53;;;;;;;2.08;100.00;98050.09;5005580;28;20144;-63
2022/12/29 06:20:45;;;;;;;81.55;40.17;;;;;;;2.10;100.00;98015.13;5006321;28;20053;-63
2022/12/29 06:23:13;;;;;;;69.30;35.13;;;;;;;2.37;100.00;98034.44;5005976;28;20065;-63
2022/12/29 06:25:39;;;;;;;64.60;32.78;;;;;;;2.33;100.00;98036.13;5007021;28;20129;-63
2022/12/29 06:28:06;;;;;;;82.93;40.47;;;;;;;1.81;100.00;97955.09;5025113;28;20045;-63
2022/12/29 06:30:33;;;;;;;58.13;30.30;;;;;;;2.33;100.00;98039.69;5024224;28;20143;-63
2022/12/29 06:32:59;;;;;;;60.97;32.03;;;;;;;2.42;100.00;98039.84;5023562;28;20146;-56
2022/12/29 06:35:26;;;;;;;62.75;31.42;;;;;;;2.30;99.45;98036.72;5024772;28;20049;-59
2022/12/29 06:37:53;;;;;;;64.97;30.80;;;;;;;1.94;100.00;98016.41;5024901;28;20057;-63
2022/12/29 06:40:19;;;;;;;45.15;21.23;;;;;;;2.37;100.00;98034.44;5025198;28;20107;-56
2022/12/29 06:42:46;;;;;;;55.00;24.75;;;;;;;2.27;99.86;98009.97;5023716;28;20492;-56
2022/12/29 06:45:13;;;;;;;44.70;22.95;;;;;;;2.60;99.75;98047.25;5025128;28;20533;-57
2022/12/29 06:47:39;;;;;;;38.85;20.30;;;;;;;2.56;99.71;98047.00;5024920;28;20045;-64
2022/12/29 06:50:06;;;;;;;40.08;18.50;;;;;;;2.56;99.30;98027.06;5023130;28;20053;-63
2022/12/29 06:52:33;;;;;;;37.88;20.23;;;;;;;2.75;99.73;98027.91;5024934;28;20076;-62
2022/12/29 06:54:59;;;;;;;69.35;32.55;;;;;;;2.81;98.07;98037.66;5009046;28;20085;-63
2022/12/29 06:57:26;;;;;;;109.03;50.88;;;;;;;2.88;97.64;98032.59;5005343;28;20054;-64
2022/12/29 06:59:55;;;;;;;71.15;36.28;;;;;;;3.02;97.01;98033.47;5006490;28;20045;-63
2022/12/29 07:02:24;;;;;;;63.25;35.90;;;;;;;3.02;97.72;98022.53;5006215;28;20107;-58
2022/12/29 07:04:52;;;;;;;61.70;31.90;;;;;;;3.26;96.71;98039.66;4957688;28;20129;-55
2022/12/29 07:07:19;;;;;;;72.93;37.58;;;;;;;3.45;96.16;98043.16;5012399;28;20172;-68
2022/12/29 07:09:46;;;;;;;81.47;42.08;;;;;;;3.68;96.56;98039.50;5023851;28;20045;-58
2022/12/29 07:12:13;;;;;;;167.82;74.43;;;;;;;3.74;95.86;98040.19;5023490;28;20578;-56
2022/12/29 07:14:40;;;;;;;149.80;70.32;;;;;;;3.85;95.15;98047.13;5021200;28;20049;-61
2022/12/29 07:17:09;;;;;;;89.80;45.22;;;;;;;3.87;94.89;98039.41;5004763;28;20056;-58
2022/12/29 07:19:36;;;;;;;68.47;36.97;;;;;;;3.98;95.01;98025.19;5002849;28;20062;-62
2022/12/29 07:22:02;;;;;;;100.05;48.83;;;;;;;4.36;93.25;98037.56;5004499;28;20137;-63
2022/12/29 07:24:29;;;;;;;73.47;38.28;;;;;;;4.36;91.78;98032.09;5005170;28;20727;-57
2022/12/29 07:26:56;;;;;;;103.63;50.85;;;;;;;4.62;91.05;98024.94;5008967;28;20075;-65
2022/12/29 07:29:23;;;;;;;90.00;47.80;;;;;;;4.68;89.15;98073.09;5003796;28;20049;-62
2022/12/29 07:31:49;;;;;;;101.80;53.20;;;;;;;4.54;88.75;97983.69;5014465;28;20041;-62
2022/12/29 07:34:16;;;;;;;97.93;50.35;;;;;;;4.69;89.19;98028.06;5005764;28;20050;-66
2022/12/29 07:36:43;;;;;;;64.50;34.80;;;;;;;4.49;89.10;97962.69;5022663;28;20084;-63
2022/12/29 07:39:11;;;;;;;65.18;33.50;;;;;;;4.74;89.97;98034.59;5022340;28;20539;-55
2022/12/29 07:41:38;;;;;;;94.95;45.35;;;;;;;4.49;91.36;98036.75;5002138;28;20552;-63
2022/12/29 07:44:04;;;;;;;72.47;36.05;;;;;;;4.39;92.79;98039.69;5003600;28;20500;-63
2022/12/29 07:46:31;;;;;;;56.58;29.52;;;;;;;3.70;94.53;97952.31;5003418;28;20061;-65
2022/12/29 07:49:17;;;;;;;89.57;45.88;;;;;;;4.46;94.49;98014.59;5002377;28;20050;-55
2022/12/29 07:51:44;;;;;;;78.07;41.20;;;;;;;5.05;92.84;98043.75;5003723;28;20123;-63
2022/12/29 07:54:12;;;;;;;55.63;31.02;;;;;;;5.16;89.88;98036.88;5004009;28;20081;-53
2022/12/29 07:56:39;;;;;;;43.22;24.73;;;;;;;4.94;91.63;98039.59;4986555;28;20058;-54
2022/12/29 07:59:05;;;;;;;43.28;23.20;;;;;;;5.25;89.71;98015.81;4984373;28;20060;-64
2022/12/29 08:01:32;;;;;;;44.20;22.88;;;;;;;5.57;89.13;98029.25;4984082;28;20132;-54
2022/12/29 08:03:59;;;;;;;34.17;19.58;;;;;;;5.71;87.52;98043.72;4999272;28;20492;-63
2022/12/29 08:06:26;;;;;;;37.42;20.15;;;;;;;5.59;88.35;98021.53;4983755;28;20535;-55
2022/12/29 08:08:52;;;;;;;40.90;21.23;;;;;;;5.89;87.24;98027.06;4982563;28;20680;-65
2022/12/29 08:11:19;;;;;;;40.70;24.20;;;;;;;6.28;86.44;98034.50;4984157;28;20500;-62
2022/12/29 08:13:46;;;;;;;36.15;22.50;;;;;;;6.26;84.69;98011.97;4984021;28;20057;-59
2022/12/29 08:16:13;;;;;;;34.78;20.23;;;;;;;6.31;84.17;98039.34;4983938;28;20081;-70
2022/12/29 08:18:39;;;;;;;37.30;22.52;;;;;;;6.41;85.43;98044.59;4984026;28;20182;-70
2022/12/29 08:21:06;;;;;;;26.00;16.48;;;;;;;6.39;83.55;98013.81;4982699;28;20526;-55
2022/12/29 08:23:33;;;;;;;27.73;17.25;;;;;;;6.62;82.23;98023.59;4984079;28;20050;-59
2022/12/29 08:26:04;;;;;;;27.65;16.42;;;;;;;7.01;82.23;98042.75;4986085;28;20128;-64
2022/12/29 08:28:32;;;;;;;31.52;16.80;;;;;;;6.80;82.93;98044.50;5003530;28;20053;-57
2022/12/29 08:31:01;;;;;;;20.48;12.80;;;;;;;7.13;81.44;98040.16;5002503;28;20056;-72
2022/12/29 08:33:28;;;;;;;27.35;16.67;;;;;;;6.50;80.95;97909.72;5003838;28;20131;-63
2022/12/29 08:36:03;;;;;;;24.95;15.30;;;;;;;7.51;80.20;98035.59;5002447;28;20054;-57
2022/12/29 08:38:30;;;;;;;28.10;14.98;;;;;;;7.59;79.58;98034.78;5001192;28;20053;-64
2022/12/29 08:40:57;;;;;;;27.92;16.30;;;;;;;7.56;78.59;97966.53;5000269;28;20516;-57
2022/12/29 08:43:25;;;;;;;80.53;36.30;;;;;;;7.77;77.16;97966.63;4999339;28;20584;-71
2022/12/29 08:45:51;;;;;;;38.35;20.02;;;;;;;8.27;76.55;98019.19;5003618;28;20082;-56
2022/12/29 08:48:19;;;;;;;35.75;20.33;;;;;;;8.49;77.11;98016.97;5003435;28;20164;-57
2022/12/29 08:50:46;;;;;;;28.40;18.23;;;;;;;8.59;76.67;98011.09;5000586;28;20634;-67
2022/12/29 08:53:13;;;;;;;26.52;16.33;;;;;;;8.68;76.30;97991.69;5002837;28;20657;-64
2022/12/29 08:55:39;;;;;;;29.90;21.17;;;;;;;8.88;76.19;98018.53;5003688;28;20081;-57
2022/12/29 08:58:06;;;;;;;36.10;23.25;;;;;;;8.47;75.70;97938.41;5004111;28;20104;-64
2022/12/29 09:00:33;;;;;;;26.05;15.70;;;;;;;8.89;75.29;98003.56;4999246;28;20233;-57
2022/12/29 09:02:59;;;;;;;23.92;13.65;;;;;;;8.78;75.71;97969.19;4987442;28;20080;-66
2022/12/29 09:05:26;;;;;;;26.30;14.90;;;;;;;9.12;74.91;98002.09;5001103;28;20054;-53
2022/12/29 09:07:53;;;;;;;20.15;12.02;;;;;;;6.82;74.15;97604.44;4994343;28;20089;-70
2022/12/29 09:10:19;;;;;;;21.00;11.90;;;;;;;9.22;73.88;97962.97;4983229;28;20053;-60
2022/12/29 09:12:46;;;;;;;22.52;11.82;;;;;;;9.58;74.40;97988.00;4982689;28;20132;-64
2022/12/29 09:15:13;;;;;;;16.40;11.10;;;;;;;9.52;73.29;97986.59;4998043;28;20771;-72
2022/12/29 09:17:46;;;;;;;33.15;16.52;;;;;;;7.95;72.19;97703.34;5002268;28;20057;-56
2022/12/29 09:20:15;;;;;;;17.48;10.57;;;;;;;9.85;71.36;97987.38;5002324;28;20050;-57
2022/12/29 09:22:42;;;;;;;21.50;12.48;;;;;;;9.46;70.66;97907.78;5000246;28;20582;-69
2022/12/29 09:25:10;;;;;;;14.68;9.45;;;;;;;9.88;71.34;97969.31;5000396;28;20050;-66
2022/12/29 09:27:37;;;;;;;20.20;9.85;;;;;;;10.04;70.61;97962.75;5000794;28;20404;-62
2022/12/29 09:30:06;;;;;;;13.00;8.43;;;;;;;10.03;70.75;97966.69;5017228;28;20081;-64
2022/12/29 09:32:33;;;;;;;14.23;8.45;;;;;;;10.12;70.18;97967.41;5001316;28;20518;-62
2022/12/29 09:35:06;;;;;;;15.18;8.65;;;;;;;10.17;69.33;97950.56;5000531;28;20045;-56
2022/12/29 09:37:32;;;;;;;59.63;24.17;;;;;;;9.15;70.40;97764.50;5002358;28;20052;-62
2022/12/29 09:39:59;;;;;;;18.98;10.85;;;;;;;10.44;69.67;97949.06;5003141;28;20050;-60
2022/12/29 09:42:39;;;;;;;15.40;10.48;;;;;;;10.65;68.96;97941.44;5002685;28;20058;-56
2022/12/29 09:45:16;;;;;;;16.58;8.90;;;;;;;10.93;66.85;97935.91;4999593;28;20579;-61
2022/12/29 09:47:45;;;;;;;13.43;8.20;;;;;;;10.88;67.00;97925.06;4995879;28;20050;-57
2022/12/29 09:50:28;;;;;;;15.57;8.25;;;;;;;11.02;66.03;97931.06;4991478;28;20112;-58
2022/12/29 09:53:01;;;;;;;14.30;8.13;;;;;;;11.10;64.12;97927.31;5014588;28;20436;-63
2022/12/29 09:55:38;;;;;;;10.55;7.47;;;;;;;10.51;63.39;97819.88;4996801;28;20137;-55
2022/12/29 09:58:10;;;;;;;24.88;11.85;;;;;;;10.91;63.52;97880.84;4985958;28;20512;-62
2022/12/29 10:01:04;;;;;;;35.00;19.33;;;;;;;11.23;63.08;97926.94;4996467;28;20085;-56
2022/12/29 10:03:47;;;;;;;11.77;7.85;;;;;;;11.39;62.54;97913.09;4986830;28;20172;-54
2022/12/29 10:06:21;;;;;;;12.80;8.05;;;;;;;11.36;62.82;97897.16;4984176;28;20065;-57
2022/12/29 10:09:01;;;;;;;14.60;9.68;;;;;;;11.52;61.53;97915.44;4984844;28;20058;-59
2022/12/29 10:11:47;;;;;;;23.80;13.73;;;;;;;11.57;61.96;97900.53;5001492;28;20065;-68
2022/12/29 10:14:22;;;;;;;13.95;8.27;;;;;;;11.59;61.19;97906.50;5002580;28;20144;-56
2022/12/29 10:17:10;;;;;;;26.60;13.57;;;;;;;11.73;60.06;97893.84;5000829;28;20060;-64
2022/12/29 10:19:49;;;;;;;19.30;11.07;;;;;;;11.72;60.68;97895.03;4986171;28;20057;-63
2022/12/29 10:22:46;;;;;;;11.60;7.72;;;;;;;11.83;59.64;97895.28;4985912;28;20182;-57
2022/12/29 10:25:18;;;;;;;12.80;7.57;;;;;;;11.10;60.97;97813.63;4986095;28;20050;-64
2022/12/29 10:27:48;;;;;;;13.85;7.50;;;;;;;11.51;59.37;97854.75;5001165;28;20077;-64
2022/12/29 10:30:16;;;;;;;9.75;7.25;;;;;;;11.13;59.25;97772.13;4985930;28;20058;-56
2022/12/29 10:33:05;;;;;;;13.68;7.30;;;;;;;11.82;59.59;97882.59;4989780;28;20069;-56
2022/12/29 10:35:40;;;;;;;15.55;9.35;;;;;;;11.99;58.88;97876.66;5000218;28;20050;-56
2022/12/29 10:38:41;;;;;;;10.48;7.88;;;;;;;12.09;58.31;97876.13;4989043;28;20068;-61
2022/12/29 10:41:29;;;;;;;9.98;7.20;;;;;;;12.17;58.16;97873.16;4999401;28;20501;-57
2022/12/29 10:43:57;;;;;;;11.20;6.85;;;;;;;12.17;57.92;97844.59;4984198;28;20064;-55
2022/12/29 10:46:36;;;;;;;12.00;6.97;;;;;;;11.79;58.72;97819.47;4985565;28;20058;-56
2022/12/29 10:49:05;;;;;;;13.95;8.25;;;;;;;12.22;58.56;97863.72;4996516;28;20515;-65
2022/12/29 10:51:42;;;;;;;10.45;7.43;;;;;;;12.41;58.61;97861.00;4995339;28;20130;-60
2022/12/29 10:54:21;;;;;;;12.43;7.63;;;;;;;12.40;58.18;97864.97;5001747;28;20046;-59
2022/12/29 10:56:57;;;;;;;7.45;6.18;;;;;;;12.05;56.91;97780.81;5003128;28;20050;-58
2022/12/29 10:59:30;;;;;;;13.27;8.75;;;;;;;12.17;57.50;97783.47;5004782;28;20053;-59
2022/12/29 11:02:09;;;;;;;17.20;11.55;;;;;;;12.89;57.75;97854.94;5001163;28;20508;-73
2022/12/29 11:05:01;;;;;;;17.65;12.50;;;;;;;12.97;57.34;97845.56;4996171;28;20050;-56
2022/12/29 11:07:30;;;;;;;15.40;9.13;;;;;;;12.43;57.33;97830.06;4989896;28;20057;-66
2022/12/29 11:10:36;;;;;;;17.20;8.93;;;;;;;12.40;57.83;97826.06;4986463;28;20410;-61
2022/12/29 11:13:12;;;;;;;38.15;31.98;;;;;;;12.89;57.40;97838.25;4985490;28;20101;-61
2022/12/29 11:15:47;;;;;;;32.42;25.70;;;;;;;12.90;56.87;97800.91;5000458;28;20054;-66
2022/12/29 11:18:26;;;;;;;18.63;11.93;;;;;;;13.32;55.77;97837.97;5003835;28;20656;-65
2022/12/29 11:21:01;;;;;;;18.45;13.45;;;;;;;13.09;56.78;97836.28;4987398;28;20057;-67
2022/12/29 11:23:33;;;;;;;20.70;11.32;;;;;;;13.09;55.71;97775.09;4984875;28;20128;-55
2022/12/29 11:26:15;;;;;;;10.35;8.23;;;;;;;12.98;55.80;97830.47;4983044;28;20050;-67
2022/12/29 11:28:45;;;;;;;16.85;8.57;;;;;;;12.76;56.08;97766.44;4984512;28;20457;-56
2022/12/29 11:31:17;;;;;;;11.32;7.72;;;;;;;13.12;55.46;97824.44;4984954;28;20120;-69
2022/12/29 11:33:44;;;;;;;14.68;9.60;;;;;;;12.82;56.10;97763.00;4984603;28;20062;-68
2022/12/29 11:36:17;;;;;;;14.95;11.25;;;;;;;13.38;55.98;97818.97;4983128;28;20058;-65
2022/12/29 11:38:50;;;;;;;14.32;10.32;;;;;;;13.32;56.30;97818.47;4992689;28;20516;-55
2022/12/29 11:41:25;;;;;;;29.30;19.45;;;;;;;13.22;56.04;97826.59;4999642;28;20089;-67
2022/12/29 11:43:59;;;;;;;13.98;8.38;;;;;;;13.15;55.84;97818.91;5001661;28;20533;-55
2022/12/29 11:46:25;;;;;;;;;;;;;;;13.45;55.57;97816.31;4984796;28;20077;-63
2022/12/29 11:48:53;;;;;;;13.10;8.45;;;;;;;12.36;56.72;97763.25;4984317;28;19925;-56
2022/12/29 11:51:30;;;;;;;13.75;9.48;;;;;;;12.79;57.07;97808.22;4984173;28;20441;-55
2022/12/29 11:54:00;;;;;;;12.00;8.48;;;;;;;12.18;58.47;97808.13;4983618;28;20178;-67
2022/12/29 11:56:39;;;;;;;14.35;9.32;;;;;;;12.15;59.08;97769.13;4984873;28;20064;-66
2022/12/29 11:59:36;;;;;;;11.85;8.38;;;;;;;12.39;58.73;97802.22;4999155;28;20073;-65
2022/12/29 12:02:11;;;;;;;15.93;9.10;;;;;;;12.42;58.76;97801.50;4999563;28;20077;-59
2022/12/29 12:04:38;;;;;;;15.50;10.05;;;;;;;12.51;58.89;97804.88;5000383;28;20057;-66
2022/12/29 12:07:24;;;;;;;15.27;9.25;;;;;;;12.56;58.90;97795.44;4984000;28;20488;-67
2022/12/29 12:09:56;;;;;;;13.93;9.82;;;;;;;12.80;58.12;97790.41;4985338;28;20128;-55
2022/12/29 12:12:48;;;;;;;14.60;10.18;;;;;;;12.83;57.52;97795.22;4992408;28;20054;-54
2022/12/29 12:15:24;;;;;;;14.07;9.18;;;;;;;12.76;57.40;97795.06;5000434;28;20058;-55
2022/12/29 12:18:05;;;;;;;12.88;7.95;;;;;;;12.81;56.91;97785.63;4989331;28;20077;-55